createdAt,value
2023-01-19T00:00:35.252Z,8.75
2023-01-19T00:03:04.949Z,8.80
2023-01-19T00:05:33.835Z,8.86
2023-01-19T00:08:14.937Z,8.93
2023-01-19T00:10:47.689Z,8.97
2023-01-19T00:13:15.820Z,9.02
2023-01-19T00:15:43.123Z,9.03
2023-01-19T00:18:11.105Z,9.06
2023-01-19T00:20:39.057Z,9.09
2023-01-19T00:23:08.028Z,9.10
2023-01-19T00:25:35.519Z,9.12
2023-01-19T00:28:02.347Z,9.15
2023-01-19T00:30:29.631Z,9.16
2023-01-19T00:32:57.012Z,9.11
2023-01-19T00:35:23.905Z,9.14
2023-01-19T00:37:50.800Z,9.08
2023-01-19T00:40:17.991Z,9.04
2023-01-19T00:42:44.820Z,9.08
2023-01-19T00:45:20.289Z,9.11
2023-01-19T00:47:48.387Z,9.15
2023-01-19T00:50:16.859Z,9.18
2023-01-19T00:52:44.772Z,9.22
2023-01-19T00:55:14.569Z,9.29
2023-01-19T00:57:42.263Z,9.32
2023-01-19T01:00:13.527Z,9.34
2023-01-19T01:02:42.807Z,9.35
2023-01-19T01:05:11.059Z,9.38
2023-01-19T01:07:41.344Z,9.40
2023-01-19T01:10:10.842Z,9.42
2023-01-19T01:12:38.772Z,9.42
2023-01-19T01:15:08.245Z,9.47
2023-01-19T01:17:35.091Z,9.50
2023-01-19T01:20:02.073Z,9.54
2023-01-19T01:22:28.810Z,9.55
2023-01-19T01:24:55.600Z,9.61
2023-01-19T01:27:22.596Z,9.66
2023-01-19T01:29:49.360Z,9.69
2023-01-19T01:32:16.851Z,9.71
2023-01-19T01:34:44.017Z,9.74
2023-01-19T01:37:11.466Z,9.75
2023-01-19T01:39:38.267Z,9.75
2023-01-19T01:42:17.765Z,9.75
2023-01-19T01:44:53.986Z,9.76
2023-01-19T01:47:29.646Z,9.76
2023-01-19T01:50:17.743Z,9.74
2023-01-19T01:53:06.287Z,9.68
2023-01-19T01:55:39.295Z,9.65
2023-01-19T01:58:07.939Z,9.59
2023-01-19T02:00:54.829Z,9.51
2023-01-19T02:03:24.179Z,9.40
2023-01-19T02:05:53.633Z,9.35
2023-01-19T02:08:50.826Z,9.29
2023-01-19T02:11:36.684Z,9.26
2023-01-19T02:14:06.855Z,9.22
2023-01-19T02:16:35.032Z,9.32
2023-01-19T02:19:01.865Z,9.34
2023-01-19T02:21:54.952Z,9.36
2023-01-19T02:24:22.411Z,9.45
2023-01-19T02:26:50.217Z,9.52
2023-01-19T02:29:20.740Z,9.64
2023-01-19T02:31:47.834Z,9.70
2023-01-19T02:34:20.179Z,9.74
2023-01-19T02:37:02.161Z,9.77
2023-01-19T02:39:36.833Z,9.81
2023-01-19T02:42:09.806Z,9.88
2023-01-19T02:44:38.248Z,9.93
2023-01-19T02:47:05.544Z,9.99
2023-01-19T02:49:32.448Z,10.06
2023-01-19T02:52:01.139Z,10.10
2023-01-19T02:54:49.282Z,10.15
2023-01-19T02:57:27.974Z,10.16
2023-01-19T03:00:13.281Z,10.18
2023-01-19T03:02:43.741Z,10.15
2023-01-19T03:05:19.870Z,10.09
2023-01-19T03:08:05.380Z,9.97
2023-01-19T03:10:52.464Z,9.91
2023-01-19T03:13:30.062Z,9.85
2023-01-19T03:16:06.009Z,9.83
2023-01-19T03:18:35.653Z,9.81
2023-01-19T03:21:06.252Z,9.82
2023-01-19T03:23:36.541Z,9.78
2023-01-19T03:26:08.703Z,9.77
2023-01-19T03:28:39.036Z,9.74
2023-01-19T03:31:15.074Z,9.75
2023-01-19T03:33:47.453Z,9.78
2023-01-19T03:36:35.148Z,9.85
2023-01-19T03:39:04.087Z,9.89
2023-01-19T03:41:32.632Z,9.90
2023-01-19T03:44:00.199Z,9.93
2023-01-19T03:46:28.053Z,9.91
2023-01-19T03:48:55.351Z,9.92
2023-01-19T03:51:22.418Z,9.90
2023-01-19T03:53:50.187Z,9.88
2023-01-19T03:56:22.646Z,9.85
2023-01-19T03:58:49.802Z,9.81
2023-01-19T04:01:17.897Z,9.78
2023-01-19T04:03:44.777Z,9.71
2023-01-19T04:06:11.523Z,9.63
2023-01-19T04:08:38.285Z,9.52
2023-01-19T04:11:05.132Z,9.46
2023-01-19T04:13:31.993Z,9.40
2023-01-19T04:16:03.188Z,9.45
2023-01-19T04:18:33.695Z,9.47
2023-01-19T04:21:05.500Z,9.48
2023-01-19T04:23:32.661Z,9.47
2023-01-19T04:26:04.876Z,9.51
2023-01-19T04:28:32.745Z,9.53
2023-01-19T04:30:59.940Z,9.54
2023-01-19T04:33:28.344Z,9.55
2023-01-19T04:35:56.163Z,9.56
2023-01-19T04:38:26.603Z,9.54
2023-01-19T04:40:54.471Z,9.53
2023-01-19T04:43:21.809Z,9.52
2023-01-19T04:45:49.229Z,9.51
2023-01-19T04:48:18.446Z,9.49
2023-01-19T04:50:45.779Z,9.48
2023-01-19T04:53:13.810Z,9.46
2023-01-19T04:55:41.115Z,9.47
2023-01-19T04:58:08.128Z,9.47
2023-01-19T05:00:35.363Z,9.45
2023-01-19T05:03:03.026Z,9.46
2023-01-19T05:05:30.314Z,9.46
2023-01-19T05:07:57.035Z,9.44
2023-01-19T05:10:24.066Z,9.40
2023-01-19T05:12:51.412Z,9.37
2023-01-19T05:15:18.276Z,9.30
2023-01-19T05:17:45.502Z,9.27
2023-01-19T05:20:16.022Z,9.18
2023-01-19T05:22:43.864Z,9.14
2023-01-19T05:25:10.739Z,9.10
2023-01-19T05:27:38.086Z,9.10
2023-01-19T05:30:06.144Z,9.08
2023-01-19T05:32:33.107Z,9.06
2023-01-19T05:34:59.939Z,8.98
2023-01-19T05:37:26.836Z,8.91
2023-01-19T05:39:54.293Z,8.80
2023-01-19T05:42:21.547Z,8.75
2023-01-19T05:44:48.664Z,8.70
2023-01-19T05:47:15.599Z,8.67
2023-01-19T05:52:46.971Z,8.61
2023-01-19T05:55:15.527Z,8.58
2023-01-19T05:57:43.232Z,8.56
2023-01-19T06:00:10.887Z,8.56
2023-01-19T06:02:37.745Z,8.59
2023-01-19T06:05:04.871Z,8.63
2023-01-19T06:07:32.031Z,8.67
2023-01-19T06:09:58.981Z,8.72
2023-01-19T06:12:26.016Z,8.76
2023-01-19T06:14:52.898Z,8.77
2023-01-19T06:17:20.625Z,8.76
2023-01-19T06:19:47.359Z,8.72
2023-01-19T06:22:14.153Z,8.70
2023-01-19T06:24:40.994Z,8.64
2023-01-19T06:27:08.008Z,8.64
2023-01-19T06:29:34.823Z,8.61
2023-01-19T06:32:01.701Z,8.63
2023-01-19T06:34:29.077Z,8.65
2023-01-19T06:36:56.548Z,8.65
2023-01-19T06:39:23.634Z,8.68
2023-01-19T06:41:50.896Z,8.72
2023-01-19T06:44:17.686Z,8.73
2023-01-19T06:46:44.526Z,8.76
2023-01-19T06:49:11.234Z,8.80
2023-01-19T06:51:38.146Z,8.83
2023-01-19T06:54:05.699Z,8.86
2023-01-19T06:56:32.623Z,8.79
2023-01-19T06:58:59.432Z,8.79
2023-01-19T07:01:27.083Z,8.92
2023-01-19T07:03:54.588Z,8.98
2023-01-19T07:06:21.348Z,9.04
2023-01-19T07:08:48.229Z,9.09
2023-01-19T07:11:25.246Z,9.11
2023-01-19T07:13:57.661Z,9.10
2023-01-19T07:16:24.863Z,9.03
2023-01-19T07:18:51.641Z,8.98
2023-01-19T07:21:19.280Z,8.95
2023-01-19T07:23:51.376Z,8.94
2023-01-19T07:26:21.236Z,8.98
2023-01-19T07:28:49.008Z,9.08
2023-01-19T07:31:16.631Z,9.09
2023-01-19T07:33:43.724Z,9.22
2023-01-19T07:36:10.719Z,9.32
2023-01-19T07:38:37.547Z,9.35
2023-01-19T07:41:06.955Z,9.40
2023-01-19T07:43:34.405Z,9.44
2023-01-19T07:46:04.390Z,9.54
2023-01-19T07:48:31.570Z,9.65
2023-01-19T07:51:05.354Z,9.71
2023-01-19T07:53:32.832Z,9.79
2023-01-19T07:55:59.630Z,9.77
2023-01-19T07:58:26.942Z,9.76
2023-01-19T08:00:53.942Z,9.75
2023-01-19T08:03:20.850Z,9.82
2023-01-19T08:05:52.383Z,9.95
2023-01-19T08:08:20.357Z,10.10
2023-01-19T08:10:50.385Z,10.24
2023-01-19T08:13:17.563Z,10.39
2023-01-19T08:15:44.819Z,10.49
2023-01-19T08:18:11.719Z,10.58
2023-01-19T08:20:38.662Z,10.66
2023-01-19T08:23:05.573Z,10.69
2023-01-19T08:25:33.583Z,10.85
2023-01-19T08:28:00.513Z,10.89
2023-01-19T08:30:27.458Z,11.01
2023-01-19T08:32:55.068Z,11.07
2023-01-19T08:35:22.590Z,11.18
2023-01-19T08:37:49.834Z,11.24
2023-01-19T08:40:18.357Z,11.25
2023-01-19T08:42:45.644Z,11.27
2023-01-19T08:45:12.461Z,11.34
2023-01-19T08:47:39.257Z,11.42
2023-01-19T08:50:06.525Z,11.51
2023-01-19T08:52:33.345Z,11.51
2023-01-19T08:55:00.826Z,11.38
2023-01-19T08:57:27.729Z,11.34
2023-01-19T08:59:54.609Z,11.59
2023-01-19T09:02:21.557Z,11.81
2023-01-19T09:04:48.903Z,11.98
2023-01-19T09:07:15.779Z,12.18
2023-01-19T09:09:43.558Z,12.37
2023-01-19T09:12:10.344Z,12.60
2023-01-19T09:14:37.123Z,12.94
2023-01-19T09:17:04.328Z,13.24
2023-01-19T09:19:31.116Z,13.59
2023-01-19T09:21:59.734Z,13.63
2023-01-19T09:24:26.842Z,13.59
2023-01-19T09:26:53.651Z,13.52
2023-01-19T09:29:20.449Z,13.41
2023-01-19T09:31:47.217Z,13.30
2023-01-19T09:34:14.044Z,13.18
2023-01-19T09:36:40.840Z,13.04
2023-01-19T09:39:07.649Z,12.91
2023-01-19T09:41:38.768Z,12.79
2023-01-19T09:44:06.372Z,12.65
2023-01-19T09:46:41.486Z,12.53
2023-01-19T09:49:21.643Z,12.30
2023-01-19T09:51:51.044Z,12.05
2023-01-19T09:54:27.802Z,11.92
2023-01-19T09:56:54.614Z,11.81
2023-01-19T09:59:26.000Z,11.75
2023-01-19T10:02:11.252Z,11.64
2023-01-19T10:04:42.376Z,11.49
2023-01-19T10:07:20.970Z,11.39
2023-01-19T10:10:02.868Z,11.31
2023-01-19T10:12:45.913Z,11.29
2023-01-19T10:15:15.976Z,11.29
2023-01-19T10:17:51.843Z,11.25
2023-01-19T10:20:29.020Z,11.27
2023-01-19T10:22:59.409Z,11.28
2023-01-19T10:25:27.779Z,11.31
2023-01-19T10:27:55.105Z,11.33
2023-01-19T10:30:27.928Z,11.36
2023-01-19T10:32:55.287Z,11.39
2023-01-19T10:35:25.192Z,11.38
2023-01-19T10:37:59.865Z,11.40
2023-01-19T10:40:49.088Z,11.46
2023-01-19T10:43:34.574Z,11.56
2023-01-19T10:46:05.922Z,11.66
2023-01-19T10:48:42.559Z,11.78
2023-01-19T10:51:11.923Z,11.98
2023-01-19T10:53:38.795Z,12.21
2023-01-19T10:56:24.192Z,12.53
2023-01-19T10:58:51.222Z,12.77
2023-01-19T11:01:26.750Z,12.96
2023-01-19T11:03:55.592Z,13.20
2023-01-19T11:06:26.374Z,13.38
2023-01-19T11:09:10.783Z,13.62
2023-01-19T11:11:47.241Z,13.85
2023-01-19T11:14:18.254Z,14.01
2023-01-19T11:16:58.804Z,14.15
2023-01-19T11:19:31.979Z,14.24
2023-01-19T11:22:22.828Z,14.38
2023-01-19T11:24:50.269Z,14.55
2023-01-19T11:27:19.667Z,14.68
2023-01-19T11:29:57.160Z,14.78
2023-01-19T11:32:27.465Z,14.95
2023-01-19T11:34:54.319Z,15.13
2023-01-19T11:37:21.120Z,15.28
2023-01-19T11:39:57.185Z,15.54
2023-01-19T11:42:25.508Z,15.65
2023-01-19T11:45:04.306Z,15.56
2023-01-19T11:47:39.402Z,15.40
2023-01-19T11:50:12.867Z,15.28
2023-01-19T11:52:48.648Z,15.15
2023-01-19T11:55:29.012Z,15.15
2023-01-19T11:57:56.205Z,15.21
2023-01-19T12:00:26.907Z,15.24
2023-01-19T12:02:59.665Z,15.25
2023-01-19T12:05:33.310Z,15.25
2023-01-19T12:08:07.012Z,15.27
2023-01-19T12:10:41.615Z,15.32
2023-01-19T12:13:21.564Z,15.45
2023-01-19T12:16:11.407Z,15.55
2023-01-19T12:18:49.686Z,15.60
2023-01-19T12:21:17.411Z,15.54
2023-01-19T12:24:02.329Z,15.55
2023-01-19T12:27:00.493Z,15.57
2023-01-19T12:29:35.634Z,15.55
2023-01-19T12:32:14.596Z,15.52
2023-01-19T12:34:46.890Z,15.49
2023-01-19T12:37:31.532Z,15.40
2023-01-19T12:40:01.734Z,15.34
2023-01-19T12:42:29.419Z,15.22
2023-01-19T12:45:12.383Z,15.14
2023-01-19T12:47:39.825Z,14.97
2023-01-19T12:50:19.234Z,14.65
2023-01-19T12:53:03.069Z,14.55
2023-01-19T12:55:46.563Z,14.34
2023-01-19T12:58:24.541Z,14.41
2023-01-19T13:01:14.024Z,14.36
2023-01-19T13:04:01.498Z,14.23
2023-01-19T13:06:48.300Z,13.85
2023-01-19T13:09:34.242Z,13.48
2023-01-19T13:12:15.095Z,13.15
2023-01-19T13:14:44.725Z,12.86
2023-01-19T13:17:25.908Z,12.33
2023-01-19T13:20:14.986Z,12.00
2023-01-19T13:22:50.667Z,11.67
2023-01-19T13:25:35.655Z,11.47
2023-01-19T13:28:08.281Z,11.40
2023-01-19T13:30:36.850Z,11.40
2023-01-19T13:33:21.460Z,11.43
2023-01-19T13:35:59.002Z,11.48
2023-01-19T13:38:27.937Z,11.57
2023-01-19T13:40:56.402Z,11.63
2023-01-19T13:43:29.132Z,11.70
2023-01-19T13:45:56.691Z,11.71
2023-01-19T13:48:25.553Z,11.67
2023-01-19T13:51:04.984Z,11.56
2023-01-19T13:53:32.609Z,11.45
2023-01-19T13:56:09.819Z,11.32
2023-01-19T13:58:36.907Z,11.25
2023-01-19T14:01:03.739Z,11.17
2023-01-19T14:03:30.706Z,11.08
2023-01-19T14:05:57.676Z,10.93
2023-01-19T14:08:25.726Z,10.89
2023-01-19T14:10:56.307Z,10.93
2023-01-19T14:13:26.352Z,10.94
2023-01-19T14:15:56.939Z,10.95
2023-01-19T14:18:25.794Z,10.97
2023-01-19T14:21:11.382Z,10.94
2023-01-19T14:23:44.204Z,10.59
2023-01-19T14:26:39.236Z,10.44
2023-01-19T14:29:29.037Z,10.30
2023-01-19T14:32:21.953Z,10.35
2023-01-19T14:34:48.797Z,10.37
2023-01-19T14:37:30.431Z,10.42
2023-01-19T14:40:10.915Z,10.44
2023-01-19T14:42:49.844Z,10.45
2023-01-19T14:45:20.626Z,10.49
2023-01-19T14:47:58.725Z,10.55
2023-01-19T14:50:32.993Z,10.56
2023-01-19T14:53:03.540Z,10.62
2023-01-19T14:55:43.852Z,10.63
2023-01-19T14:58:15.677Z,10.59
2023-01-19T15:00:43.370Z,10.63
2023-01-19T15:03:10.198Z,10.67
2023-01-19T15:05:42.790Z,10.68
2023-01-19T15:08:15.255Z,10.72
2023-01-19T15:10:43.267Z,10.73
2023-01-19T15:13:19.191Z,10.68
2023-01-19T15:15:46.691Z,10.58
2023-01-19T15:18:17.198Z,10.46
2023-01-19T15:20:43.964Z,10.36
2023-01-19T15:23:11.763Z,10.30
2023-01-19T15:25:39.600Z,10.23
2023-01-19T15:28:14.653Z,10.15
2023-01-19T15:30:41.574Z,10.12
2023-01-19T15:33:19.682Z,10.03
2023-01-19T15:35:46.400Z,9.93
2023-01-19T15:38:13.229Z,9.82
2023-01-19T15:40:40.074Z,9.71
2023-01-19T15:43:06.827Z,9.60
2023-01-19T15:45:36.982Z,9.51
2023-01-19T15:48:09.565Z,9.44
2023-01-19T15:50:39.056Z,9.34
2023-01-19T15:53:07.136Z,9.23
2023-01-19T15:55:34.020Z,9.12
2023-01-19T15:58:03.922Z,9.02
2023-01-19T16:00:32.896Z,8.91
2023-01-19T16:03:01.722Z,8.75
2023-01-19T16:05:42.001Z,8.63
2023-01-19T16:08:10.367Z,8.51
2023-01-19T16:10:37.233Z,8.44
2023-01-19T16:13:04.292Z,8.34
2023-01-19T16:15:31.049Z,8.33
2023-01-19T16:17:58.395Z,8.31
2023-01-19T16:20:25.233Z,8.29
2023-01-19T16:22:52.359Z,8.35
2023-01-19T16:25:20.889Z,8.42
2023-01-19T16:27:47.689Z,8.44
2023-01-19T16:30:16.387Z,8.49
2023-01-19T16:32:43.186Z,8.50
2023-01-19T16:35:10.127Z,8.48
2023-01-19T16:37:36.877Z,8.51
2023-01-19T16:40:04.456Z,8.50
2023-01-19T16:42:31.249Z,8.44
2023-01-19T16:44:58.317Z,8.45
2023-01-19T16:47:25.502Z,8.45
2023-01-19T16:50:11.147Z,8.47
2023-01-19T16:52:38.772Z,8.50
2023-01-19T16:55:09.573Z,8.56
2023-01-19T16:57:39.328Z,8.59
2023-01-19T17:00:09.293Z,8.58
2023-01-19T17:02:36.420Z,8.59
2023-01-19T17:05:03.693Z,8.60
2023-01-19T17:07:30.961Z,8.65
2023-01-19T17:09:57.975Z,8.73
2023-01-19T17:12:25.523Z,8.79
2023-01-19T17:14:52.199Z,8.88
2023-01-19T17:17:19.018Z,8.93
2023-01-19T17:19:46.064Z,8.96
2023-01-19T17:22:14.353Z,8.96
2023-01-19T17:24:42.606Z,8.96
2023-01-19T17:27:09.859Z,8.96
2023-01-19T17:29:36.726Z,8.94
2023-01-19T17:32:04.053Z,8.91
2023-01-19T17:34:31.145Z,8.90
2023-01-19T17:37:03.272Z,8.87
2023-01-19T17:39:30.545Z,8.87
2023-01-19T17:41:58.036Z,8.88
2023-01-19T17:44:25.632Z,8.86
2023-01-19T17:46:52.531Z,8.86
2023-01-19T17:49:19.346Z,8.86
2023-01-19T17:51:46.412Z,8.83
2023-01-19T17:54:14.625Z,8.74
2023-01-19T17:56:41.712Z,8.71
2023-01-19T17:59:08.851Z,8.67
2023-01-19T18:01:40.623Z,8.64
2023-01-19T18:04:08.588Z,8.61
2023-01-19T18:06:36.750Z,8.59
2023-01-19T18:09:06.801Z,8.55
2023-01-19T18:11:34.367Z,8.51
2023-01-19T18:14:02.253Z,8.46
2023-01-19T18:16:30.004Z,8.43
2023-01-19T18:18:57.504Z,8.37
2023-01-19T18:21:28.287Z,8.34
2023-01-19T18:24:04.846Z,8.35
2023-01-19T18:26:34.423Z,8.36
2023-01-19T18:29:01.360Z,8.38
2023-01-19T18:31:28.371Z,8.38
2023-01-19T18:33:55.278Z,8.37
2023-01-19T18:36:22.119Z,8.38
2023-01-19T18:38:49.665Z,8.37
2023-01-19T18:41:18.664Z,8.32
2023-01-19T18:43:46.616Z,8.27
2023-01-19T18:46:14.466Z,8.22
2023-01-19T18:48:42.082Z,8.22
2023-01-19T18:51:11.278Z,8.20
2023-01-19T18:53:38.591Z,8.16
2023-01-19T18:56:06.313Z,8.12
2023-01-19T18:58:36.315Z,8.07
2023-01-19T19:01:03.223Z,8.04
2023-01-19T19:03:30.302Z,7.97
2023-01-19T19:05:57.608Z,7.97
2023-01-19T19:08:24.561Z,7.90
2023-01-19T19:10:52.058Z,7.90
2023-01-19T19:13:21.875Z,7.85
2023-01-19T19:15:50.025Z,7.90
2023-01-19T19:18:16.772Z,7.83
2023-01-19T19:20:44.605Z,7.86
2023-01-19T19:23:11.881Z,7.82
2023-01-19T19:25:39.424Z,7.76
2023-01-19T19:28:06.631Z,7.77
2023-01-19T19:31:15.736Z,7.77
2023-01-19T19:33:43.098Z,7.83
2023-01-19T19:36:12.623Z,7.78
2023-01-19T19:38:42.866Z,7.78
2023-01-19T19:41:13.090Z,7.79
2023-01-19T19:43:40.251Z,7.81
2023-01-19T19:46:10.033Z,7.78
2023-01-19T19:48:39.377Z,7.75
2023-01-19T19:51:17.972Z,7.67
2023-01-19T19:53:48.933Z,7.63
2023-01-19T19:56:21.946Z,7.61
2023-01-19T19:58:50.235Z,7.58
2023-01-19T20:01:25.310Z,7.58
2023-01-19T20:03:53.830Z,7.55
2023-01-19T20:06:23.107Z,7.49
2023-01-19T20:08:55.782Z,7.40
2023-01-19T20:11:26.559Z,7.34
2023-01-19T20:13:54.100Z,7.18
2023-01-19T20:16:22.718Z,7.22
2023-01-19T20:18:53.955Z,7.16
2023-01-19T20:21:26.569Z,7.13
2023-01-19T20:23:55.895Z,7.12
2023-01-19T20:26:26.490Z,7.09
2023-01-19T20:28:54.770Z,7.05
2023-01-19T20:31:27.177Z,7.00
2023-01-19T20:33:56.177Z,6.94
2023-01-19T20:36:24.415Z,6.86
2023-01-19T20:38:53.023Z,6.75
2023-01-19T20:41:22.691Z,6.66
2023-01-19T20:43:50.822Z,6.56
2023-01-19T20:46:18.981Z,6.44
2023-01-19T20:48:50.883Z,6.38
2023-01-19T20:51:19.530Z,6.33
2023-01-19T20:53:48.302Z,6.31
2023-01-19T20:56:15.599Z,6.33
2023-01-19T20:58:43.526Z,6.27
2023-01-19T21:01:22.706Z,6.24
2023-01-19T21:03:50.136Z,6.17
2023-01-19T21:06:19.570Z,6.11
2023-01-19T21:08:51.969Z,5.98
2023-01-19T21:11:21.328Z,5.86
2023-01-19T21:13:49.264Z,5.77
2023-01-19T21:16:16.976Z,5.67
2023-01-19T21:18:44.504Z,5.61
2023-01-19T21:21:28.435Z,5.57
2023-01-19T21:23:57.469Z,5.51
2023-01-19T21:26:25.361Z,5.49
2023-01-19T21:28:52.263Z,5.42
2023-01-19T21:31:20.960Z,5.38
2023-01-19T21:33:49.378Z,5.37
2023-01-19T21:36:16.613Z,5.39
2023-01-19T21:38:44.063Z,5.42
2023-01-19T21:41:12.814Z,5.48
2023-01-19T21:43:42.744Z,5.52
2023-01-19T21:46:29.193Z,5.56
2023-01-19T21:49:01.313Z,5.63
2023-01-19T21:51:33.664Z,5.69
2023-01-19T21:54:01.829Z,5.72
2023-01-19T21:56:30.090Z,5.78
2023-01-19T21:58:58.014Z,5.82
2023-01-19T22:01:25.263Z,5.85
2023-01-19T22:03:56.858Z,5.89
2023-01-19T22:06:25.532Z,5.91
2023-01-19T22:08:52.759Z,5.87
2023-01-19T22:11:20.756Z,5.72
2023-01-19T22:13:47.938Z,5.63
2023-01-19T22:16:17.442Z,5.54
2023-01-19T22:18:47.385Z,5.49
2023-01-19T22:21:19.670Z,5.41
2023-01-19T22:23:55.435Z,5.37
2023-01-19T22:26:22.659Z,5.35
2023-01-19T22:28:54.720Z,5.31
2023-01-19T22:31:24.606Z,5.31
2023-01-19T22:33:52.125Z,5.27
2023-01-19T22:36:23.579Z,5.24
2023-01-19T22:38:52.869Z,5.21
2023-01-19T22:41:25.029Z,5.16
2023-01-19T22:43:55.436Z,5.09
2023-01-19T22:46:25.367Z,5.00
2023-01-19T22:48:53.587Z,4.88
2023-01-19T22:51:21.810Z,4.74
2023-01-19T22:53:48.862Z,4.67
2023-01-19T22:56:20.597Z,4.63
2023-01-19T22:58:48.355Z,4.63
2023-01-19T23:01:18.112Z,4.60
2023-01-19T23:03:46.223Z,4.62
2023-01-19T23:06:16.258Z,4.59
2023-01-19T23:08:44.901Z,4.56
2023-01-19T23:11:14.437Z,4.53
2023-01-19T23:13:41.932Z,4.53
2023-01-19T23:16:10.804Z,4.50
2023-01-19T23:18:38.096Z,4.36
2023-01-19T23:21:11.012Z,4.27
2023-01-19T23:23:37.880Z,4.15
2023-01-19T23:26:16.231Z,4.08
2023-01-19T23:28:44.354Z,4.09
2023-01-19T23:31:18.476Z,4.09
2023-01-19T23:33:45.336Z,4.09
2023-01-19T23:36:13.141Z,4.06
2023-01-19T23:38:41.259Z,4.02
2023-01-19T23:41:09.036Z,3.93
2023-01-19T23:43:36.408Z,3.87
2023-01-19T23:46:08.695Z,3.73
2023-01-19T23:48:36.100Z,3.67
2023-01-19T23:51:12.510Z,3.54
2023-01-19T23:53:41.059Z,3.49
2023-01-19T23:56:24.054Z,3.48
2023-01-19T23:58:59.811Z,3.41
